Terminal Aerodrome Forecast
Issued by NWS Atlanta, GA

Current Version | Previous Version | Text Only | Print | Product List | Glossary On
Versions: 1 2 3 4 5 6 7 8 9 10 11 12 13 14 15 16 17 18 19 20 21 22 23 24
321
FTUS42 KFFC 240340 AAE
TAFCSG
TAF AMD
KCSG 240340Z 2404/2424 VRB03KT P6SM VCTS SCT005 BKN025CB
      TEMPO 2404/2406 3SM +TSRA BKN005 OVC025CB
     FM240700 21006KT P6SM VCSH OVC005
     FM241100 22010KT 6SM -SHRA OVC005
      TEMPO 2412/2416 VRB15G25KT 4SM TSRA SCT010 BKN030CB
     FM241600 25012G22KT P6SM VCSH BKN035=

USA.gov is the U.S. government's official web portal to all federal, state and local government web resources and services.